Time;durP1;ratioP1;P1;durP2;ratioP2;P2;SDS_P1;SDS_P2;PMS_P1;PMS_P2;Temp;Humidity;BMP_temperature;BMP_pressure;BME280_temperature;BME280_humidity;BME280_pressure;Samples;Min_cycle;Max_cycle;Signal;HPM_P1;HPM_P2
2023/12/08 00:00:38;;;;;;;18.90;9.90;;;2.40;99.90;;;;;;5039963;28;20028;-66
2023/12/08 00:03:05;;;;;;;19.17;9.48;;;2.40;99.90;;;;;;5043779;28;20028;-66
2023/12/08 00:05:31;;;;;;;20.42;9.52;;;2.30;99.90;;;;;;5038499;28;20470;-66
2023/12/08 00:07:57;;;;;;;21.23;9.45;;;2.40;99.90;;;;;;5040718;28;20047;-66
2023/12/08 00:10:27;;;;;;;21.08;9.57;;;2.40;99.90;;;;;;5039181;28;20502;-66
2023/12/08 00:12:53;;;;;;;20.70;9.90;;;2.40;99.90;;;;;;5039578;28;20036;-66
2023/12/08 00:15:19;;;;;;;18.05;9.50;;;2.40;99.90;;;;;;5038174;28;20419;-66
2023/12/08 00:17:46;;;;;;;23.70;11.60;;;2.40;99.90;;;;;;5037885;28;20167;-66
2023/12/08 00:20:15;;;;;;;21.20;10.07;;;2.50;99.90;;;;;;5038588;28;20101;-66
2023/12/08 00:22:45;;;;;;;19.98;10.23;;;2.40;99.90;;;;;;5039077;28;20052;-66
2023/12/08 00:25:11;;;;;;;23.48;11.18;;;2.40;99.90;;;;;;5039587;28;20317;-66
2023/12/08 00:27:36;;;;;;;23.52;10.18;;;2.50;99.90;;;;;;5038811;28;20025;-66
2023/12/08 00:30:02;;;;;;;26.45;10.80;;;2.50;99.90;;;;;;5038796;28;20032;-66
2023/12/08 00:32:27;;;;;;;18.77;9.65;;;2.50;99.90;;;;;;5037656;28;20032;-66
2023/12/08 00:34:53;;;;;;;19.02;9.98;;;2.60;99.90;;;;;;5020977;28;20040;-65
2023/12/08 00:37:21;;;;;;;22.38;10.50;;;2.70;99.90;;;;;;5021964;28;20044;-66
2023/12/08 00:39:47;;;;;;;24.10;9.15;;;2.70;99.90;;;;;;5042920;28;20093;-66
2023/12/08 00:42:15;;;;;;;28.40;11.43;;;2.70;99.90;;;;;;5042135;28;20040;-66
2023/12/08 00:44:41;;;;;;;25.60;10.82;;;2.70;99.90;;;;;;5042392;28;20753;-66
2023/12/08 00:47:07;;;;;;;26.63;10.25;;;2.60;99.90;;;;;;5051374;22;20049;-66
2023/12/08 00:49:34;;;;;;;29.42;11.52;;;2.70;99.90;;;;;;5042627;28;20101;-66
2023/12/08 00:52:00;;;;;;;17.17;9.50;;;2.70;99.90;;;;;;5028042;28;20674;-66
2023/12/08 00:54:26;;;;;;;20.98;10.00;;;2.70;99.90;;;;;;5042685;28;20040;-66
2023/12/08 00:56:54;;;;;;;21.15;9.23;;;2.70;99.90;;;;;;5044054;28;20063;-66
2023/12/08 00:59:19;;;;;;;17.17;9.23;;;2.70;99.90;;;;;;5042986;28;20271;-66
2023/12/08 01:01:47;;;;;;;20.23;9.93;;;2.70;99.90;;;;;;5043008;28;20032;-66
2023/12/08 01:04:15;;;;;;;19.30;9.88;;;2.60;99.90;;;;;;5042719;28;20033;-66
2023/12/08 01:06:44;;;;;;;18.83;9.13;;;2.60;99.90;;;;;;5044411;28;20143;-65
2023/12/08 01:09:12;;;;;;;22.17;10.48;;;2.70;99.90;;;;;;5043312;28;20785;-66
2023/12/08 01:11:38;;;;;;;19.58;9.65;;;2.70;99.90;;;;;;5044255;28;20052;-66
2023/12/08 01:14:06;;;;;;;17.20;8.93;;;2.70;99.90;;;;;;5045903;28;20028;-66
2023/12/08 01:16:37;;;;;;;18.50;8.68;;;2.70;99.90;;;;;;5044945;28;20041;-66
2023/12/08 01:19:08;;;;;;;17.90;9.73;;;2.70;99.90;;;;;;5042078;28;20051;-66
2023/12/08 01:21:36;;;;;;;20.42;9.10;;;2.70;99.90;;;;;;5043687;28;20244;-66
2023/12/08 01:24:02;;;;;;;21.27;10.10;;;2.60;99.90;;;;;;5040874;28;20709;-66
2023/12/08 01:26:27;;;;;;;17.73;10.07;;;2.70;99.90;;;;;;5042368;28;20115;-66
2023/12/08 01:28:53;;;;;;;18.55;8.93;;;2.70;99.90;;;;;;5041702;28;20129;-66
2023/12/08 01:31:21;;;;;;;17.73;9.13;;;2.70;99.90;;;;;;5043226;28;20631;-65
2023/12/08 01:33:47;;;;;;;21.73;9.80;;;2.70;99.90;;;;;;5043663;28;20671;-66
2023/12/08 01:36:12;;;;;;;17.13;9.77;;;2.70;99.90;;;;;;5043477;28;20041;-66
2023/12/08 01:38:38;;;;;;;19.92;9.43;;;2.70;99.90;;;;;;5041682;28;20048;-69
2023/12/08 01:41:04;;;;;;;17.52;8.88;;;2.70;99.90;;;;;;5047068;28;20032;-69
2023/12/08 01:43:29;;;;;;;22.90;10.18;;;2.70;99.90;;;;;;5047033;28;20044;-69
2023/12/08 01:45:58;;;;;;;19.27;9.73;;;2.70;99.90;;;;;;5047100;28;20132;-69
2023/12/08 01:48:24;;;;;;;21.33;10.38;;;2.70;99.90;;;;;;5045946;28;20044;-69
2023/12/08 01:50:50;;;;;;;18.88;10.00;;;2.60;99.90;;;;;;5049053;28;20107;-69
2023/12/08 01:53:16;;;;;;;17.98;9.50;;;2.60;99.90;;;;;;5046466;28;20448;-69
2023/12/08 01:55:42;;;;;;;16.63;8.88;;;2.60;99.90;;;;;;5047532;28;20036;-69
2023/12/08 01:58:08;;;;;;;16.92;9.35;;;2.60;99.90;;;;;;5045468;28;20141;-69
2023/12/08 02:00:34;;;;;;;20.00;9.18;;;2.60;99.90;;;;;;5046089;28;20029;-69
2023/12/08 02:03:03;;;;;;;17.13;8.95;;;2.60;99.90;;;;;;5045339;28;20036;-69
2023/12/08 02:05:31;;;;;;;21.88;9.88;;;2.60;99.90;;;;;;5047768;28;20505;-69
2023/12/08 02:07:57;;;;;;;20.23;9.57;;;2.60;99.90;;;;;;5045830;28;20061;-69
2023/12/08 02:10:22;;;;;;;24.75;9.98;;;2.60;99.90;;;;;;5048183;28;20037;-69
2023/12/08 02:12:48;;;;;;;24.05;10.38;;;2.60;99.90;;;;;;5045378;28;20110;-69
2023/12/08 02:15:14;;;;;;;29.00;10.52;;;2.60;99.90;;;;;;5046314;28;20036;-69
2023/12/08 02:17:40;;;;;;;19.15;9.73;;;2.60;99.90;;;;;;5045430;28;20694;-69
2023/12/08 02:20:09;;;;;;;19.02;10.02;;;2.70;99.90;;;;;;5046376;28;20516;-69
2023/12/08 02:22:35;;;;;;;22.75;9.52;;;2.70;99.90;;;;;;5041858;28;20402;-69
2023/12/08 02:25:03;;;;;;;23.73;10.60;;;2.60;99.90;;;;;;5045814;28;20039;-68
2023/12/08 02:27:31;;;;;;;28.35;11.52;;;2.60;99.90;;;;;;5044512;28;20558;-69
2023/12/08 02:29:57;;;;;;;23.13;10.23;;;2.60;99.90;;;;;;5044848;28;20082;-69
2023/12/08 02:32:41;;;;;;;22.42;10.73;;;2.70;99.90;;;;;;5046281;28;20024;-69
2023/12/08 02:35:08;;;;;;;20.77;10.60;;;2.70;99.90;;;;;;5045731;28;20176;-69
2023/12/08 02:37:36;;;;;;;28.58;11.43;;;2.70;99.90;;;;;;5044591;28;20029;-70
2023/12/08 02:40:08;;;;;;;24.20;11.30;;;2.70;99.90;;;;;;5044778;28;20778;-69
2023/12/08 02:42:35;;;;;;;22.92;10.30;;;2.70;99.90;;;;;;5045863;28;20111;-69
2023/12/08 02:45:01;;;;;;;21.43;10.17;;;2.80;99.90;;;;;;5046012;28;20024;-69
2023/12/08 02:47:27;;;;;;;23.48;11.32;;;2.80;99.90;;;;;;5047336;28;20047;-69
2023/12/08 02:49:55;;;;;;;20.80;10.57;;;2.90;99.90;;;;;;5044675;28;20032;-69
2023/12/08 02:52:21;;;;;;;21.02;10.20;;;3.00;99.90;;;;;;5044222;28;20044;-69
2023/12/08 02:54:46;;;;;;;21.65;10.85;;;3.00;99.90;;;;;;5045675;28;21612;-69
2023/12/08 02:57:12;;;;;;;24.38;11.95;;;3.00;99.90;;;;;;5046020;28;20041;-69
2023/12/08 02:59:37;;;;;;;19.85;9.55;;;3.00;99.90;;;;;;5043801;28;20029;-69
2023/12/08 03:02:03;;;;;;;21.77;10.52;;;3.00;99.90;;;;;;5047547;28;22742;-69
2023/12/08 03:04:28;;;;;;;24.25;10.60;;;3.00;99.90;;;;;;5044924;28;20041;-69
2023/12/08 03:06:54;;;;;;;25.88;11.57;;;3.00;99.90;;;;;;5045870;28;20081;-69
2023/12/08 03:09:22;;;;;;;27.25;11.55;;;3.00;99.90;;;;;;5046112;28;20028;-69
2023/12/08 03:11:48;;;;;;;28.95;12.50;;;3.00;99.90;;;;;;5045128;28;20085;-69
2023/12/08 03:14:13;;;;;;;27.15;11.40;;;2.90;99.90;;;;;;5045201;28;20654;-69
2023/12/08 03:16:39;;;;;;;25.63;11.95;;;2.90;99.90;;;;;;5047398;28;20039;-69
2023/12/08 03:19:04;;;;;;;21.55;11.50;;;3.00;99.90;;;;;;5044478;28;20119;-69
2023/12/08 03:21:30;;;;;;;20.42;10.55;;;3.10;99.90;;;;;;5046533;28;20067;-69
2023/12/08 03:23:55;;;;;;;24.77;11.77;;;3.10;99.90;;;;;;5044962;28;20031;-69
2023/12/08 03:26:21;;;;;;;26.02;11.57;;;3.10;99.90;;;;;;5047808;28;20702;-69
2023/12/08 03:28:47;;;;;;;28.55;11.57;;;3.00;99.90;;;;;;5044758;28;20032;-69
2023/12/08 03:31:26;;;;;;;28.55;12.52;;;3.00;99.90;;;;;;5046708;28;20064;-69
2023/12/08 03:33:52;;;;;;;26.83;12.48;;;3.00;99.90;;;;;;5043720;28;20127;-69
2023/12/08 03:36:18;;;;;;;23.42;11.75;;;3.00;99.90;;;;;;5046889;28;20032;-69
2023/12/08 03:38:44;;;;;;;23.13;11.77;;;3.10;99.90;;;;;;5045120;28;20126;-69
2023/12/08 03:41:12;;;;;;;21.33;11.32;;;3.00;99.90;;;;;;5046712;28;20032;-69
2023/12/08 03:43:39;;;;;;;25.35;11.65;;;3.10;99.90;;;;;;5044548;28;20070;-69
2023/12/08 03:46:08;;;;;;;25.40;11.90;;;3.10;99.90;;;;;;5044897;28;20116;-69
2023/12/08 03:48:36;;;;;;;30.85;12.77;;;3.10;99.90;;;;;;5042800;28;20032;-69
2023/12/08 03:51:02;;;;;;;24.50;12.85;;;3.10;99.90;;;;;;5044451;28;20028;-69
2023/12/08 03:53:27;;;;;;;27.83;13.30;;;3.00;99.90;;;;;;5043356;28;20500;-69
2023/12/08 03:55:53;;;;;;;23.08;12.35;;;2.90;99.90;;;;;;5045558;28;20032;-69
2023/12/08 03:58:18;;;;;;;27.35;12.70;;;3.00;99.90;;;;;;5043931;28;20032;-69
2023/12/08 04:00:44;;;;;;;33.05;11.93;;;2.90;99.90;;;;;;5028025;28;20150;-69
2023/12/08 04:03:12;;;;;;;28.25;13.35;;;2.90;99.90;;;;;;5043761;28;20043;-69
2023/12/08 04:05:37;;;;;;;28.08;11.88;;;2.90;99.90;;;;;;5044932;28;20085;-68
2023/12/08 04:08:04;;;;;;;22.98;12.00;;;2.90;99.90;;;;;;5043416;28;20036;-69
2023/12/08 04:10:31;;;;;;;23.60;12.10;;;3.00;99.90;;;;;;5046047;28;20111;-69
2023/12/08 04:12:56;;;;;;;28.15;12.80;;;3.10;99.90;;;;;;5040595;28;20062;-69
2023/12/08 04:15:22;;;;;;;24.67;11.75;;;3.10;99.90;;;;;;5043641;28;20273;-69
2023/12/08 04:17:48;;;;;;;29.60;12.23;;;3.20;99.90;;;;;;5044339;28;20118;-69
2023/12/08 04:20:13;;;;;;;26.40;11.05;;;3.20;99.90;;;;;;5047327;28;20644;-69
2023/12/08 04:22:39;;;;;;;25.67;11.57;;;3.10;99.90;;;;;;5042216;28;20140;-69
2023/12/08 04:25:08;;;;;;;29.63;12.55;;;3.10;99.90;;;;;;5045254;28;22599;-69
2023/12/08 04:27:33;;;;;;;25.17;12.90;;;3.10;99.90;;;;;;5042527;28;20029;-69
2023/12/08 04:30:04;;;;;;;22.80;11.80;;;3.00;99.90;;;;;;5044250;28;20627;-70
2023/12/08 04:32:29;;;;;;;21.80;11.02;;;3.10;99.90;;;;;;5041420;28;20031;-69
2023/12/08 04:34:55;;;;;;;21.77;11.32;;;3.10;99.90;;;;;;5043872;28;20375;-69
2023/12/08 04:37:20;;;;;;;21.50;11.00;;;3.20;99.90;;;;;;5027619;28;20035;-70
2023/12/08 04:39:46;;;;;;;25.30;11.18;;;3.10;99.90;;;;;;5045452;28;20062;-70
2023/12/08 04:42:11;;;;;;;26.20;11.45;;;3.20;99.90;;;;;;5044747;28;20029;-69
2023/12/08 04:44:39;;;;;;;23.23;11.70;;;3.20;99.90;;;;;;5043602;28;20041;-70
2023/12/08 04:47:05;;;;;;;;;;;3.30;99.90;;;;;;5044627;28;20115;-70
2023/12/08 04:49:30;;;;;;;19.92;10.57;;;3.30;99.90;;;;;;5046220;28;21085;-69
2023/12/08 04:51:56;;;;;;;21.67;10.85;;;3.40;99.90;;;;;;5025407;28;20032;-69
2023/12/08 04:54:21;;;;;;;23.33;11.88;;;3.30;99.90;;;;;;5043296;28;20028;-69
2023/12/08 04:56:47;;;;;;;30.33;12.10;;;3.30;99.90;;;;;;5043960;28;20456;-71
2023/12/08 04:59:12;;;;;;;26.05;12.18;;;3.20;99.90;;;;;;5040197;28;20041;-70
2023/12/08 05:01:40;;;;;;;32.15;11.65;;;3.20;99.90;;;;;;5042069;28;20040;-69
2023/12/08 05:04:06;;;;;;;30.20;12.23;;;3.20;99.90;;;;;;5043420;28;20500;-70
2023/12/08 05:06:34;;;;;;;22.83;11.40;;;3.30;99.90;;;;;;5044542;28;20033;-70
2023/12/08 05:09:02;;;;;;;27.30;12.05;;;3.30;99.90;;;;;;5044140;28;20274;-69
2023/12/08 05:11:28;;;;;;;28.85;13.00;;;3.40;99.90;;;;;;5043752;28;22651;-70
2023/12/08 05:13:54;;;;;;;25.67;12.60;;;3.40;99.90;;;;;;5042194;28;20047;-70
2023/12/08 05:16:19;;;;;;;25.50;11.38;;;3.40;99.90;;;;;;5042677;28;22516;-69
2023/12/08 05:18:47;;;;;;;35.55;13.30;;;3.30;99.90;;;;;;5042042;28;20071;-70
2023/12/08 05:21:13;;;;;;;;;;;3.30;99.90;;;;;;5044475;28;20040;-70
2023/12/08 05:23:38;;;;;;;32.25;13.45;;;3.30;99.90;;;;;;5044223;28;19920;-70
2023/12/08 05:26:04;;;;;;;24.88;13.00;;;3.30;99.90;;;;;;5046150;28;20112;-70
2023/12/08 05:28:30;;;;;;;25.05;12.32;;;3.40;99.90;;;;;;5045538;28;20067;-70
2023/12/08 05:30:56;;;;;;;27.67;12.55;;;3.40;99.90;;;;;;5047866;28;20028;-70
2023/12/08 05:33:21;;;;;;;23.63;11.35;;;3.30;99.90;;;;;;5046001;28;20028;-70
2023/12/08 05:35:47;;;;;;;22.20;11.30;;;3.40;99.90;;;;;;5048164;28;20036;-70
2023/12/08 05:38:12;;;;;;;29.25;11.88;;;3.40;99.90;;;;;;5029145;28;20040;-70
2023/12/08 05:40:38;;;;;;;22.10;11.52;;;3.40;99.90;;;;;;5045934;28;20047;-70
2023/12/08 05:43:04;;;;;;;24.00;11.52;;;3.50;99.90;;;;;;5044916;28;20036;-70
2023/12/08 05:45:29;;;;;;;32.15;10.35;;;3.40;99.90;;;;;;5045440;28;20123;-70
2023/12/08 05:47:55;;;;;;;26.52;10.65;;;3.40;99.90;;;;;;5046614;28;20052;-70
2023/12/08 05:50:21;;;;;;;21.63;10.32;;;3.50;99.90;;;;;;5048983;28;20112;-70
2023/12/08 05:52:46;;;;;;;37.35;10.93;;;3.50;99.90;;;;;;5028515;28;20029;-70
2023/12/08 05:55:12;;;;;;;23.83;10.35;;;3.60;99.90;;;;;;5044870;28;20046;-70
2023/12/08 05:57:37;;;;;;;17.75;8.95;;;3.60;99.90;;;;;;5046139;28;20475;-70
2023/12/08 06:00:09;;;;;;;23.48;9.15;;;3.60;99.90;;;;;;5047796;28;20954;-70
2023/12/08 06:02:38;;;;;;;22.85;9.40;;;3.60;99.90;;;;;;5044259;28;20090;-70
2023/12/08 06:05:06;;;;;;;20.42;9.88;;;3.60;99.90;;;;;;5045663;28;20025;-70
2023/12/08 06:07:32;;;;;;;19.20;9.25;;;3.50;99.90;;;;;;5043464;28;20056;-70
2023/12/08 06:09:57;;;;;;;28.50;10.25;;;3.50;99.90;;;;;;5046732;28;20028;-70
2023/12/08 06:12:25;;;;;;;23.60;9.48;;;3.40;99.90;;;;;;5046231;28;20116;-70
2023/12/08 06:14:54;;;;;;;25.73;10.07;;;3.40;99.90;;;;;;5046219;28;20560;-70
2023/12/08 06:17:20;;;;;;;23.13;10.13;;;3.50;99.90;;;;;;5046853;28;20106;-70
2023/12/08 06:19:45;;;;;;;23.73;10.27;;;3.50;99.90;;;;;;5046191;28;20146;-70
2023/12/08 06:22:13;;;;;;;28.80;9.93;;;3.60;99.90;;;;;;5045943;28;20069;-70
2023/12/08 06:24:41;;;;;;;;;;;3.60;99.90;;;;;;5045964;28;20122;-69
2023/12/08 06:27:09;;;;;;;19.38;9.73;;;3.60;99.90;;;;;;5049636;28;19916;-70
2023/12/08 06:29:35;;;;;;;20.85;9.65;;;3.50;99.90;;;;;;5044499;28;20061;-69
2023/12/08 06:32:00;;;;;;;22.92;10.68;;;3.60;99.90;;;;;;5045810;28;20037;-70
2023/12/08 06:34:26;;;;;;;22.80;9.10;;;3.60;99.90;;;;;;5046564;28;20025;-70
2023/12/08 06:36:52;;;;;;;16.27;9.50;;;3.50;99.90;;;;;;5044552;28;20122;-70
2023/12/08 06:39:17;;;;;;;25.73;11.05;;;3.50;99.90;;;;;;5045156;28;20029;-69
2023/12/08 06:41:43;;;;;;;22.75;10.50;;;3.50;99.90;;;;;;5052231;28;20032;-70
2023/12/08 06:44:09;;;;;;;22.35;10.27;;;3.60;99.90;;;;;;5045017;28;20039;-70
2023/12/08 06:49:02;;;;;;;21.58;9.18;;;3.60;99.90;;;;;;5059375;22;20130;-87
2023/12/08 06:51:28;;;;;;;23.92;9.77;;;3.60;99.90;;;;;;5034963;28;20036;-87
2023/12/08 06:53:54;;;;;;;20.20;9.80;;;3.60;99.90;;;;;;5036895;28;20110;-85
2023/12/08 06:56:21;;;;;;;22.63;9.55;;;3.70;99.90;;;;;;5051328;28;20037;-85
2023/12/08 06:58:50;;;;;;;19.73;9.10;;;3.70;99.90;;;;;;5017995;28;20105;-85
2023/12/08 07:01:15;;;;;;;;;;;3.60;99.90;;;;;;5030463;28;20040;-88
2023/12/08 07:03:41;;;;;;;21.55;8.52;;;3.60;99.90;;;;;;5050259;28;19920;-87
2023/12/08 07:06:06;;;;;;;16.17;8.25;;;3.60;99.90;;;;;;5031513;28;20126;-89
2023/12/08 07:08:32;;;;;;;19.42;9.05;;;3.70;99.90;;;;;;5030007;28;20028;-86
2023/12/08 07:10:58;;;;;;;21.83;8.05;;;3.60;99.90;;;;;;5051996;28;20013;-86
2023/12/08 07:13:23;;;;;;;17.60;8.25;;;3.70;99.90;;;;;;5052281;28;20077;-87
2023/12/08 07:15:49;;;;;;;29.27;9.77;;;3.70;99.90;;;;;;5034037;28;20131;-87
2023/12/08 07:18:37;;;;;;;21.55;9.82;;;3.70;99.90;;;;;;5032721;28;20036;-87
2023/12/08 07:21:05;;;;;;;25.00;9.45;;;3.70;99.90;;;;;;5032790;28;20094;-86
2023/12/08 07:23:31;;;;;;;23.67;9.77;;;3.80;99.90;;;;;;5047413;28;20119;-87
2023/12/08 07:25:57;;;;;;;25.83;10.50;;;3.70;99.90;;;;;;5031168;28;20038;-87
2023/12/08 07:28:22;;;;;;;27.80;10.90;;;3.60;99.90;;;;;;5033147;28;20168;-87
2023/12/08 07:30:48;;;;;;;27.95;10.75;;;3.70;99.90;;;;;;5050169;28;20032;-88
2023/12/08 07:33:13;;;;;;;24.73;10.13;;;3.70;99.90;;;;;;5052825;28;20166;-86
2023/12/08 07:35:39;;;;;;;22.60;8.90;;;3.70;99.90;;;;;;5051624;28;20514;-88
2023/12/08 07:38:05;;;;;;;23.25;9.88;;;3.70;99.90;;;;;;5020876;28;20036;-87
2023/12/08 07:40:30;;;;;;;17.98;9.00;;;3.80;99.90;;;;;;5036083;28;20120;-87
2023/12/08 07:42:56;;;;;;;18.95;9.35;;;3.80;99.90;;;;;;5036345;28;20032;-87
2023/12/08 07:45:22;;;;;;;18.38;8.95;;;3.80;99.90;;;;;;5052136;28;20074;-86
2023/12/08 07:47:50;;;;;;;18.67;7.88;;;3.80;99.90;;;;;;5032812;28;20033;-88
2023/12/08 07:50:18;;;;;;;16.23;8.82;;;3.80;99.90;;;;;;5033668;28;20020;-87
2023/12/08 07:52:43;;;;;;;21.23;8.95;;;3.80;99.90;;;;;;5052224;28;20028;-87
2023/12/08 07:55:12;;;;;;;15.57;9.05;;;3.80;99.90;;;;;;5051084;28;20041;-87
2023/12/08 07:57:38;;;;;;;15.73;8.60;;;3.70;99.90;;;;;;5033535;28;20037;-88
2023/12/08 08:00:07;;;;;;;18.08;8.73;;;3.80;99.90;;;;;;5034480;28;20550;-88
2023/12/08 08:02:33;;;;;;;20.77;9.35;;;3.80;99.90;;;;;;5053323;28;20111;-87
2023/12/08 08:04:59;;;;;;;14.68;8.07;;;3.80;99.90;;;;;;5052557;28;20414;-87
2023/12/08 08:07:24;;;;;;;17.02;9.25;;;3.70;99.90;;;;;;5033135;28;20036;-86
2023/12/08 08:09:51;;;;;;;24.58;9.57;;;3.70;99.90;;;;;;5050532;28;20082;-85
2023/12/08 08:12:17;;;;;;;18.75;9.35;;;3.70;99.90;;;;;;5034637;28;20029;-86
2023/12/08 08:14:44;;;;;;;23.30;9.05;;;3.70;99.90;;;;;;5030457;28;20032;-86
2023/12/08 08:17:09;;;;;;;20.48;9.90;;;3.60;99.90;;;;;;5051947;28;20656;-85
2023/12/08 08:19:35;;;;;;;27.55;9.43;;;3.60;99.90;;;;;;5033558;28;20039;-85
2023/12/08 08:22:03;;;;;;;21.17;9.45;;;3.60;99.90;;;;;;5053985;28;20024;-87
2023/12/08 08:24:29;;;;;;;21.70;10.00;;;3.70;99.90;;;;;;5035518;28;20040;-86
2023/12/08 08:26:54;;;;;;;23.33;9.82;;;3.60;99.90;;;;;;5037128;28;20033;-86
2023/12/08 08:29:20;;;;;;;22.45;10.82;;;3.70;99.90;;;;;;5049885;28;20052;-86
2023/12/08 08:31:46;;;;;;;19.65;10.15;;;3.70;99.90;;;;;;5032449;28;20024;-86
2023/12/08 08:34:11;;;;;;;19.98;10.05;;;3.70;99.90;;;;;;5032484;28;20648;-87
2023/12/08 08:36:37;;;;;;;23.55;10.75;;;3.80;99.90;;;;;;5033793;28;20029;-87
2023/12/08 08:39:05;;;;;;;20.42;10.25;;;3.70;99.90;;;;;;5033659;28;20393;-87
2023/12/08 08:41:31;;;;;;;18.52;9.75;;;3.70;99.90;;;;;;5034782;28;20459;-86
2023/12/08 08:43:59;;;;;;;20.90;10.52;;;3.70;99.90;;;;;;5035440;28;20035;-87
2023/12/08 08:46:24;;;;;;;24.42;10.32;;;3.70;99.90;;;;;;5017119;28;20067;-86
2023/12/08 08:48:51;;;;;;;21.98;10.90;;;3.60;99.90;;;;;;5033141;28;20380;-87
2023/12/08 08:51:16;;;;;;;21.77;10.38;;;3.60;99.90;;;;;;5051187;28;20043;-89
2023/12/08 08:53:42;;;;;;;25.00;10.77;;;3.70;99.90;;;;;;5033307;28;20032;-88
2023/12/08 08:56:08;;;;;;;21.35;11.30;;;3.80;99.90;;;;;;5053598;28;20066;-87
2023/12/08 08:58:34;;;;;;;23.13;10.90;;;3.80;99.90;;;;;;5036307;28;20032;-89
2023/12/08 09:01:00;;;;;;;27.67;12.55;;;3.80;99.90;;;;;;5056378;28;20036;-87
2023/12/08 09:03:26;;;;;;;23.48;11.88;;;3.80;99.90;;;;;;5056200;28;20101;-87
2023/12/08 09:05:59;;;;;;;21.92;11.18;;;3.80;99.90;;;;;;5038954;28;20612;-85
2023/12/08 09:08:24;;;;;;;24.02;11.65;;;3.80;99.90;;;;;;5038007;28;20036;-88
2023/12/08 09:10:53;;;;;;;25.40;13.02;;;3.70;99.90;;;;;;5056240;28;20113;-88
2023/12/08 09:13:21;;;;;;;22.15;11.25;;;3.70;99.90;;;;;;5035328;28;20032;-86
2023/12/08 09:15:46;;;;;;;24.02;11.93;;;3.70;99.90;;;;;;5035696;28;20066;-85
2023/12/08 09:18:12;;;;;;;23.60;11.45;;;3.80;99.90;;;;;;5054785;28;20060;-86
2023/12/08 09:20:38;;;;;;;26.38;11.20;;;3.90;99.90;;;;;;5038562;28;20028;-87
2023/12/08 09:23:05;;;;;;;31.38;12.57;;;3.60;99.90;;;;;;5037306;28;20119;-86
2023/12/08 09:25:32;;;;;;;31.80;12.88;;;3.60;99.90;;;;;;5057329;28;20024;-88
2023/12/08 09:27:58;;;;;;;29.98;13.13;;;3.60;99.90;;;;;;5040193;28;20039;-88
2023/12/08 09:30:23;;;;;;;29.33;13.60;;;3.70;99.90;;;;;;5059830;28;20032;-89
2023/12/08 09:32:50;;;;;;;28.33;14.23;;;3.70;99.90;;;;;;5040909;28;20040;-86
2023/12/08 09:35:19;;;;;;;27.70;12.10;;;3.70;99.90;;;;;;5059638;28;20024;-87
2023/12/08 09:37:45;;;;;;;26.20;12.85;;;3.70;99.90;;;;;;5059225;28;20033;-87
2023/12/08 09:40:14;;;;;;;25.50;12.40;;;3.60;99.90;;;;;;5060023;28;20039;-88
2023/12/08 09:42:45;;;;;;;27.95;12.98;;;3.60;99.90;;;;;;5039441;28;20120;-89
2023/12/08 09:45:11;;;;;;;28.38;11.77;;;3.60;99.90;;;;;;5038500;28;20025;-89
2023/12/08 09:47:39;;;;;;;24.27;11.95;;;3.60;99.90;;;;;;5055383;28;20036;-88
2023/12/08 09:50:09;;;;;;;;;;;3.50;99.90;;;;;;5039543;28;20376;-89
2023/12/08 09:52:52;;;;;;;32.30;12.30;;;3.50;99.90;;;;;;5054350;28;20023;-89
2023/12/08 09:55:19;;;;;;;21.77;12.48;;;3.60;99.90;;;;;;5038784;28;20119;-87
2023/12/08 09:57:45;;;;;;;33.28;14.32;;;3.60;99.90;;;;;;5035836;28;20567;-89
2023/12/08 10:00:13;;;;;;;25.65;13.77;;;3.60;99.90;;;;;;5054275;28;20047;-88
2023/12/08 10:02:42;;;;;;;31.15;13.32;;;3.60;99.90;;;;;;5057563;28;20093;-90
2023/12/08 10:05:12;;;;;;;29.60;14.38;;;3.50;99.90;;;;;;5038224;28;20483;-88
2023/12/08 10:07:40;;;;;;;28.38;13.43;;;3.60;99.90;;;;;;5033115;28;20078;-88
2023/12/08 10:10:13;;;;;;;23.65;12.32;;;3.60;99.90;;;;;;5055488;28;20081;-88
2023/12/08 10:12:42;;;;;;;28.60;13.80;;;3.60;99.90;;;;;;5037512;28;20046;-88
2023/12/08 10:15:11;;;;;;;32.75;14.65;;;3.50;99.90;;;;;;5042327;28;20166;-89
2023/12/08 10:17:49;;;;;;;;;;;3.50;99.90;;;;;;5039710;28;20032;-88
2023/12/08 10:20:16;;;;;;;28.35;13.93;;;3.40;99.90;;;;;;5056546;28;19999;-89
2023/12/08 10:22:50;;;;;;;31.20;13.20;;;3.50;99.90;;;;;;5036876;28;20024;-88
2023/12/08 10:25:19;;;;;;;31.00;13.90;;;3.50;99.90;;;;;;5039081;28;20116;-87
2023/12/08 10:27:49;;;;;;;28.40;14.07;;;3.30;99.90;;;;;;5037686;28;20051;-88
2023/12/08 10:30:16;;;;;;;33.88;12.85;;;3.40;99.90;;;;;;5036323;28;20052;-89
2023/12/08 10:32:43;;;;;;;26.60;12.68;;;3.40;99.90;;;;;;5013618;28;20040;-89
2023/12/08 10:35:11;;;;;;;27.13;13.40;;;3.50;99.90;;;;;;5058475;28;20039;-91
2023/12/08 10:37:41;;;;;;;29.42;13.07;;;3.50;99.90;;;;;;5038012;28;20032;-88
2023/12/08 10:40:10;;;;;;;25.73;11.80;;;3.50;99.90;;;;;;5055221;28;20039;-90
2023/12/08 10:42:36;;;;;;;24.17;12.55;;;3.50;99.90;;;;;;5054493;28;20036;-89
2023/12/08 10:45:10;;;;;;;29.33;12.73;;;3.60;99.90;;;;;;5020212;28;20037;-89
2023/12/08 10:47:45;;;;;;;23.52;12.80;;;3.50;99.90;;;;;;5036986;28;20029;-89
2023/12/08 10:50:11;;;;;;;28.25;11.93;;;3.50;99.90;;;;;;5056545;28;20029;-89
2023/12/08 10:52:42;;;;;;;28.25;12.82;;;3.40;99.90;;;;;;5054252;28;20052;-88
2023/12/08 10:55:10;;;;;;;26.73;12.60;;;3.40;99.90;;;;;;5039300;28;20456;-88
2023/12/08 10:57:37;;;;;;;30.25;13.02;;;3.40;99.90;;;;;;5054758;28;20094;-88
2023/12/08 11:00:18;;;;;;;32.90;12.33;;;3.40;99.90;;;;;;5036583;28;20491;-89
2023/12/08 11:02:49;;;;;;;23.33;11.45;;;3.40;99.90;;;;;;5038346;28;20129;-88
2023/12/08 11:05:39;;;;;;;25.27;12.27;;;3.40;99.90;;;;;;5036251;28;20581;-89
2023/12/08 11:08:12;;;;;;;21.50;11.57;;;3.50;99.90;;;;;;5038726;28;20038;-90
2023/12/08 11:10:40;;;;;;;25.90;12.40;;;3.40;99.90;;;;;;5056341;28;20024;-90
2023/12/08 11:13:15;;;;;;;25.10;12.63;;;3.50;99.90;;;;;;5054257;28;20589;-89
2023/12/08 11:15:46;;;;;;;22.80;11.77;;;3.40;99.90;;;;;;5034890;28;20106;-90
2023/12/08 11:18:26;;;;;;;23.98;11.07;;;3.40;99.90;;;;;;5055199;28;20513;-87
2023/12/08 11:20:53;;;;;;;26.33;11.82;;;3.50;99.90;;;;;;5022301;28;20041;-89
2023/12/08 11:23:24;;;;;;;24.37;12.17;;;3.50;99.90;;;;;;5035220;28;20036;-90
2023/12/08 11:26:15;;;;;;;24.80;11.98;;;3.60;99.90;;;;;;5039021;28;20051;-92
2023/12/08 11:29:09;;;;;;;22.63;12.02;;;3.50;99.90;;;;;;5010133;28;20037;-90
2023/12/08 11:31:44;;;;;;;28.77;12.75;;;3.60;99.90;;;;;;5037230;28;20107;-91
2023/12/08 11:34:24;;;;;;;27.42;12.95;;;3.60;99.90;;;;;;5037073;28;20032;-92
2023/12/08 11:36:53;;;;;;;26.77;12.55;;;3.70;99.90;;;;;;5039533;28;20052;-92
2023/12/08 11:39:34;;;;;;;25.73;12.85;;;3.60;99.90;;;;;;5058144;28;20826;-91
2023/12/08 11:42:03;;;;;;;24.27;12.88;;;3.60;99.90;;;;;;5037363;28;20041;-91
2023/12/08 11:44:34;;;;;;;25.83;13.15;;;3.50;99.90;;;;;;5039256;28;20036;-91
2023/12/08 11:47:00;;;;;;;25.20;11.52;;;3.60;99.90;;;;;;5057487;28;20029;-91
2023/12/08 11:49:26;;;;;;;24.20;12.45;;;3.70;99.90;;;;;;5054616;28;20086;-91
2023/12/08 11:52:06;;;;;;;35.42;13.98;;;3.60;99.90;;;;;;5037154;28;20036;-92
2023/12/08 11:55:01;;;;;;;27.88;13.15;;;3.60;99.90;;;;;;5056546;28;20066;-90
2023/12/08 11:57:32;;;;;;;24.90;12.02;;;3.60;99.90;;;;;;5039672;28;20058;-91
2023/12/08 11:59:59;;;;;;;23.77;12.10;;;3.70;99.90;;;;;;5040172;28;20038;-89
2023/12/08 12:02:26;;;;;;;28.38;13.63;;;3.60;99.90;;;;;;5046159;28;20035;-89
2023/12/08 12:04:51;;;;;;;25.65;12.18;;;3.70;99.90;;;;;;5044287;28;20037;-90
2023/12/08 12:07:21;;;;;;;37.53;13.43;;;3.60;99.90;;;;;;5045743;28;20025;-88
2023/12/08 12:09:49;;;;;;;28.63;13.02;;;3.70;99.90;;;;;;5061164;28;20514;-90
2023/12/08 12:12:31;;;;;;;28.33;12.60;;;3.70;99.90;;;;;;5042890;28;20036;-89
2023/12/08 12:15:02;;;;;;;24.95;12.23;;;3.80;99.90;;;;;;5023080;28;20032;-90
2023/12/08 12:17:28;;;;;;;31.95;14.55;;;3.70;99.90;;;;;;5036371;28;20088;-89
2023/12/08 12:19:55;;;;;;;23.90;12.32;;;3.70;99.90;;;;;;5034797;28;20036;-89
2023/12/08 12:22:21;;;;;;;28.27;12.75;;;3.70;99.90;;;;;;5037617;28;21479;-89
2023/12/08 12:24:47;;;;;;;23.80;11.65;;;3.60;99.90;;;;;;5036144;28;20163;-90
2023/12/08 12:27:13;;;;;;;27.23;12.15;;;3.70;99.90;;;;;;5034138;28;20125;-92
2023/12/08 12:29:38;;;;;;;22.98;12.07;;;3.80;99.90;;;;;;5037171;28;20033;-87
2023/12/08 12:32:07;;;;;;;30.08;12.27;;;3.70;99.90;;;;;;5055125;28;21121;-90
2023/12/08 12:34:36;;;;;;;23.02;11.43;;;3.80;99.90;;;;;;5037390;28;20280;-91
2023/12/08 12:37:04;;;;;;;22.35;11.75;;;3.70;99.90;;;;;;5042479;28;20051;-92
2023/12/08 12:39:30;;;;;;;22.38;11.80;;;3.50;99.90;;;;;;5040954;28;20067;-91
2023/12/08 12:42:04;;;;;;;24.45;12.15;;;3.70;99.90;;;;;;5045234;28;20052;-92
2023/12/08 12:44:44;;;;;;;24.80;11.85;;;3.70;99.90;;;;;;5027176;28;20136;-91